sensor_id;sensor_type;location;lat;lon;timestamp;pressure;altitude;pressure_sealevel;temperature;humidity
61506;BME280;47366;51.916;4.574;2023-04-06T00:02:15;101866.00;;;6.63;59.82
61506;BME280;47366;51.916;4.574;2023-04-06T00:04:41;101860.59;;;6.63;59.77
61506;BME280;47366;51.916;4.574;2023-04-06T00:07:06;101863.31;;;6.61;59.91
61506;BME280;47366;51.916;4.574;2023-04-06T00:09:31;101862.38;;;6.62;59.50
61506;BME280;47366;51.916;4.574;2023-04-06T00:11:57;101859.69;;;6.62;59.03
61506;BME280;47366;51.916;4.574;2023-04-06T00:14:23;101858.78;;;6.63;59.24
61506;BME280;47366;51.916;4.574;2023-04-06T00:16:48;101854.28;;;6.64;59.29
61506;BME280;47366;51.916;4.574;2023-04-06T00:19:13;101854.25;;;6.65;59.29
61506;BME280;47366;51.916;4.574;2023-04-06T00:21:39;101848.03;;;6.63;57.81
61506;BME280;47366;51.916;4.574;2023-04-06T00:24:04;101850.72;;;6.63;58.34
61506;BME280;47366;51.916;4.574;2023-04-06T00:26:30;101854.25;;;6.65;58.24
61506;BME280;47366;51.916;4.574;2023-04-06T00:28:55;101847.88;;;6.68;57.91
61506;BME280;47366;51.916;4.574;2023-04-06T00:31:21;101844.28;;;6.67;57.87
61506;BME280;47366;51.916;4.574;2023-04-06T00:33:48;101838.84;;;6.70;57.90
61506;BME280;47366;51.916;4.574;2023-04-06T00:36:13;101839.69;;;6.72;57.70
61506;BME280;47366;51.916;4.574;2023-04-06T00:38:38;101829.81;;;6.71;57.02
61506;BME280;47366;51.916;4.574;2023-04-06T00:41:04;101825.38;;;6.70;57.52
61506;BME280;47366;51.916;4.574;2023-04-06T00:43:29;101823.66;;;6.68;56.84
61506;BME280;47366;51.916;4.574;2023-04-06T00:45:54;101816.56;;;6.65;56.96
61506;BME280;47366;51.916;4.574;2023-04-06T00:48:20;101820.16;;;6.64;57.15
61506;BME280;47366;51.916;4.574;2023-04-06T00:50:45;101811.16;;;6.65;57.65
61506;BME280;47366;51.916;4.574;2023-04-06T00:53:11;101820.13;;;6.66;57.23
61506;BME280;47366;51.916;4.574;2023-04-06T00:55:36;101812.03;;;6.66;57.63
61506;BME280;47366;51.916;4.574;2023-04-06T00:58:02;101809.34;;;6.66;57.36
61506;BME280;47366;51.916;4.574;2023-04-06T01:00:27;101806.69;;;6.64;57.44
61506;BME280;47366;51.916;4.574;2023-04-06T01:02:53;101802.25;;;6.63;57.13
61506;BME280;47366;51.916;4.574;2023-04-06T01:05:18;101799.50;;;6.65;57.16
61506;BME280;47366;51.916;4.574;2023-04-06T01:07:45;101795.16;;;6.61;57.01
61506;BME280;47366;51.916;4.574;2023-04-06T01:10:10;101790.63;;;6.63;57.21
61506;BME280;47366;51.916;4.574;2023-04-06T01:12:36;101781.63;;;6.62;57.09
61506;BME280;47366;51.916;4.574;2023-04-06T01:15:04;101789.66;;;6.64;57.32
61506;BME280;47366;51.916;4.574;2023-04-06T01:17:30;101777.09;;;6.64;57.34
61506;BME280;47366;51.916;4.574;2023-04-06T01:19:56;101780.72;;;6.63;57.16
61506;BME280;47366;51.916;4.574;2023-04-06T01:22:21;101768.28;;;6.59;56.79
61506;BME280;47366;51.916;4.574;2023-04-06T01:24:49;101779.88;;;6.61;56.62
61506;BME280;47366;51.916;4.574;2023-04-06T01:27:14;101769.22;;;6.58;56.63
61506;BME280;47366;51.916;4.574;2023-04-06T01:29:39;101765.63;;;6.57;56.65
61506;BME280;47366;51.916;4.574;2023-04-06T01:32:08;101773.69;;;6.57;56.33
61506;BME280;47366;51.916;4.574;2023-04-06T01:34:34;101763.88;;;6.56;56.30
61506;BME280;47366;51.916;4.574;2023-04-06T01:36:59;101761.94;;;6.60;56.52
61506;BME280;47366;51.916;4.574;2023-04-06T01:39:25;101764.63;;;6.60;56.43
61506;BME280;47366;51.916;4.574;2023-04-06T01:41:51;101758.38;;;6.59;56.35
61506;BME280;47366;51.916;4.574;2023-04-06T01:44:16;101753.97;;;6.57;56.23
61506;BME280;47366;51.916;4.574;2023-04-06T01:46:43;101739.78;;;6.52;56.66
61506;BME280;47366;51.916;4.574;2023-04-06T01:49:08;101741.47;;;6.56;56.77
61506;BME280;47366;51.916;4.574;2023-04-06T01:51:33;101743.16;;;6.58;56.48
61506;BME280;47366;51.916;4.574;2023-04-06T01:53:59;101740.63;;;6.54;56.61
61506;BME280;47366;51.916;4.574;2023-04-06T01:56:24;101734.25;;;6.56;56.51
61506;BME280;47366;51.916;4.574;2023-04-06T01:58:49;101742.34;;;6.56;56.30
61506;BME280;47366;51.916;4.574;2023-04-06T02:01:15;101733.31;;;6.57;56.63
61506;BME280;47366;51.916;4.574;2023-04-06T02:03:40;101728.84;;;6.58;56.58
61506;BME280;47366;51.916;4.574;2023-04-06T02:06:06;101728.03;;;6.54;56.42
61506;BME280;47366;51.916;4.574;2023-04-06T02:08:31;101722.56;;;6.57;56.60
61506;BME280;47366;51.916;4.574;2023-04-06T02:10:57;101716.50;;;6.51;56.49
61506;BME280;47366;51.916;4.574;2023-04-06T02:13:22;101719.09;;;6.54;56.25
61506;BME280;47366;51.916;4.574;2023-04-06T02:15:47;101716.41;;;6.54;56.50
61506;BME280;47366;51.916;4.574;2023-04-06T02:18:12;101712.88;;;6.52;56.50
61506;BME280;47366;51.916;4.574;2023-04-06T02:20:38;101713.66;;;6.55;57.00
61506;BME280;47366;51.916;4.574;2023-04-06T02:23:03;101705.53;;;6.57;56.57
61506;BME280;47366;51.916;4.574;2023-04-06T02:25:28;101702.97;;;6.52;56.69
61506;BME280;47366;51.916;4.574;2023-04-06T02:27:54;101708.31;;;6.54;56.67
61506;BME280;47366;51.916;4.574;2023-04-06T02:30:19;101702.94;;;6.54;56.55
61506;BME280;47366;51.916;4.574;2023-04-06T02:32:45;101705.63;;;6.54;56.69
61506;BME280;47366;51.916;4.574;2023-04-06T02:35:10;101708.22;;;6.57;57.03
61506;BME280;47366;51.916;4.574;2023-04-06T02:37:35;101694.72;;;6.58;56.42
61506;BME280;47366;51.916;4.574;2023-04-06T02:40:00;101702.78;;;6.58;56.82
61506;BME280;47366;51.916;4.574;2023-04-06T02:42:26;101695.72;;;6.54;56.59
61506;BME280;47366;51.916;4.574;2023-04-06T02:44:51;101685.84;;;6.55;56.53
61506;BME280;47366;51.916;4.574;2023-04-06T02:47:16;101682.25;;;6.56;56.69
61506;BME280;47366;51.916;4.574;2023-04-06T02:49:42;101691.22;;;6.55;56.95
61506;BME280;47366;51.916;4.574;2023-04-06T02:52:07;101690.31;;;6.56;56.54
61506;BME280;47366;51.916;4.574;2023-04-06T02:54:32;101681.44;;;6.52;56.64
61506;BME280;47366;51.916;4.574;2023-04-06T02:56:58;101678.59;;;6.57;56.73
61506;BME280;47366;51.916;4.574;2023-04-06T02:59:23;101676.03;;;6.54;56.70
61506;BME280;47366;51.916;4.574;2023-04-06T03:01:48;101666.13;;;6.54;56.48
61506;BME280;47366;51.916;4.574;2023-04-06T03:04:14;101667.94;;;6.54;56.35
61506;BME280;47366;51.916;4.574;2023-04-06T03:06:39;101668.84;;;6.53;56.27
61506;BME280;47366;51.916;4.574;2023-04-06T03:09:06;101668.94;;;6.51;56.42
61506;BME280;47366;51.916;4.574;2023-04-06T03:11:32;101671.47;;;6.56;56.46
61506;BME280;47366;51.916;4.574;2023-04-06T03:13:57;101664.28;;;6.56;56.65
61506;BME280;47366;51.916;4.574;2023-04-06T03:16:22;101669.69;;;6.55;56.38
61506;BME280;47366;51.916;4.574;2023-04-06T03:18:48;101655.41;;;6.53;56.69
61506;BME280;47366;51.916;4.574;2023-04-06T03:21:13;101659.00;;;6.53;56.54
61506;BME280;47366;51.916;4.574;2023-04-06T03:23:42;101656.34;;;6.52;56.04
61506;BME280;47366;51.916;4.574;2023-04-06T03:26:07;101654.50;;;6.54;56.45
61506;BME280;47366;51.916;4.574;2023-04-06T03:28:33;101654.59;;;6.51;56.52
61506;BME280;47366;51.916;4.574;2023-04-06T03:30:58;101648.38;;;6.49;56.29
61506;BME280;47366;51.916;4.574;2023-04-06T03:33:24;101643.91;;;6.48;56.30
61506;BME280;47366;51.916;4.574;2023-04-06T03:35:52;101651.78;;;6.54;56.30
61506;BME280;47366;51.916;4.574;2023-04-06T03:38:17;101647.31;;;6.53;56.07
61506;BME280;47366;51.916;4.574;2023-04-06T03:40:43;101643.75;;;6.52;56.52
61506;BME280;47366;51.916;4.574;2023-04-06T03:43:08;101648.31;;;6.50;55.77
61506;BME280;47366;51.916;4.574;2023-04-06T03:45:34;101642.88;;;6.52;56.32
61506;BME280;47366;51.916;4.574;2023-04-06T03:47:59;101643.72;;;6.54;56.52
61506;BME280;47366;51.916;4.574;2023-04-06T03:50:25;101637.47;;;6.53;56.31
61506;BME280;47366;51.916;4.574;2023-04-06T03:52:50;101636.63;;;6.51;56.37
61506;BME280;47366;51.916;4.574;2023-04-06T03:55:15;101639.34;;;6.50;56.72
61506;BME280;47366;51.916;4.574;2023-04-06T03:57:41;101638.47;;;6.49;56.94
61506;BME280;47366;51.916;4.574;2023-04-06T04:00:07;101637.69;;;6.46;56.50
61506;BME280;47366;51.916;4.574;2023-04-06T04:02:32;101636.91;;;6.42;56.99
61506;BME280;47366;51.916;4.574;2023-04-06T04:04:57;101626.19;;;6.41;56.96
61506;BME280;47366;51.916;4.574;2023-04-06T04:07:23;101636.88;;;6.44;57.08
61506;BME280;47366;51.916;4.574;2023-04-06T04:09:48;101635.09;;;6.43;57.79
61506;BME280;47366;51.916;4.574;2023-04-06T04:12:13;101630.72;;;6.38;57.47
61506;BME280;47366;51.916;4.574;2023-04-06T04:14:40;101636.13;;;6.38;57.49
61506;BME280;47366;51.916;4.574;2023-04-06T04:17:05;101630.81;;;6.37;57.58
61506;BME280;47366;51.916;4.574;2023-04-06T04:19:31;101635.22;;;6.40;58.06
61506;BME280;47366;51.916;4.574;2023-04-06T04:21:56;101631.69;;;6.37;57.90
61506;BME280;47366;51.916;4.574;2023-04-06T04:24:21;101633.44;;;6.38;57.58
61506;BME280;47366;51.916;4.574;2023-04-06T04:26:47;101631.69;;;6.37;58.25
61506;BME280;47366;51.916;4.574;2023-04-06T04:29:12;101641.56;;;6.37;58.05
61506;BME280;47366;51.916;4.574;2023-04-06T04:31:37;101634.47;;;6.34;58.27
61506;BME280;47366;51.916;4.574;2023-04-06T04:34:03;101642.44;;;6.37;58.98
61506;BME280;47366;51.916;4.574;2023-04-06T04:36:29;101629.03;;;6.36;58.74
61506;BME280;47366;51.916;4.574;2023-04-06T04:38:54;101638.81;;;6.38;58.54
61506;BME280;47366;51.916;4.574;2023-04-06T04:41:20;101640.63;;;6.38;58.85
61506;BME280;47366;51.916;4.574;2023-04-06T04:43:45;101642.41;;;6.39;58.40
61506;BME280;47366;51.916;4.574;2023-04-06T04:46:11;101637.06;;;6.37;58.82
61506;BME280;47366;51.916;4.574;2023-04-06T04:48:36;101646.88;;;6.38;59.07
61506;BME280;47366;51.916;4.574;2023-04-06T04:51:01;101635.31;;;6.36;58.42
61506;BME280;47366;51.916;4.574;2023-04-06T04:53:27;101640.59;;;6.40;59.31
61506;BME280;47366;51.916;4.574;2023-04-06T04:55:52;101645.09;;;6.39;59.45
61506;BME280;47366;51.916;4.574;2023-04-06T04:58:17;101642.34;;;6.41;59.39
61506;BME280;47366;51.916;4.574;2023-04-06T05:00:45;101641.47;;;6.40;59.49
61506;BME280;47366;51.916;4.574;2023-04-06T05:03:18;101636.97;;;6.41;59.64
61506;BME280;47366;51.916;4.574;2023-04-06T05:05:45;101638.81;;;6.38;60.20
61506;BME280;47366;51.916;4.574;2023-04-06T05:08:11;101637.78;;;6.43;60.25
61506;BME280;47366;51.916;4.574;2023-04-06T05:10:37;101634.25;;;6.41;61.02
61506;BME280;47366;51.916;4.574;2023-04-06T05:13:02;101634.34;;;6.39;59.90
61506;BME280;47366;51.916;4.574;2023-04-06T05:15:27;101628.88;;;6.41;59.62
61506;BME280;47366;51.916;4.574;2023-04-06T05:17:53;101634.25;;;6.41;60.93
61506;BME280;47366;51.916;4.574;2023-04-06T05:20:18;101632.41;;;6.43;60.04
61506;BME280;47366;51.916;4.574;2023-04-06T05:22:43;101628.81;;;6.44;59.98
61506;BME280;47366;51.916;4.574;2023-04-06T05:25:09;101630.56;;;6.45;60.12
61506;BME280;47366;51.916;4.574;2023-04-06T05:27:34;101628.59;;;6.50;59.97
61506;BME280;47366;51.916;4.574;2023-04-06T05:30:00;101625.06;;;6.48;60.54
61506;BME280;47366;51.916;4.574;2023-04-06T05:32:27;101625.91;;;6.50;60.26
61506;BME280;47366;51.916;4.574;2023-04-06T05:34:53;101629.47;;;6.50;60.27
61506;BME280;47366;51.916;4.574;2023-04-06T05:37:18;101623.22;;;6.50;61.19
61506;BME280;47366;51.916;4.574;2023-04-06T05:39:43;101624.88;;;6.54;60.26
61506;BME280;47366;51.916;4.574;2023-04-06T05:42:09;101619.53;;;6.52;61.24
61506;BME280;47366;51.916;4.574;2023-04-06T05:44:37;101621.31;;;6.53;61.11
61506;BME280;47366;51.916;4.574;2023-04-06T05:47:02;101627.53;;;6.55;61.04
61506;BME280;47366;51.916;4.574;2023-04-06T05:49:27;101614.13;;;6.54;62.03
61506;BME280;47366;51.916;4.574;2023-04-06T05:51:54;101617.72;;;6.53;62.54
61506;BME280;47366;51.916;4.574;2023-04-06T05:54:20;101619.50;;;6.54;62.47
61506;BME280;47366;51.916;4.574;2023-04-06T05:56:45;101620.38;;;6.54;62.58
61506;BME280;47366;51.916;4.574;2023-04-06T05:59:11;101613.19;;;6.55;61.60
61506;BME280;47366;51.916;4.574;2023-04-06T06:01:36;101619.38;;;6.57;62.88
61506;BME280;47366;51.916;4.574;2023-04-06T06:04:01;101618.34;;;6.63;62.39
61506;BME280;47366;51.916;4.574;2023-04-06T06:06:27;101624.59;;;6.63;62.80
61506;BME280;47366;51.916;4.574;2023-04-06T06:08:53;101614.81;;;6.61;62.25
61506;BME280;47366;51.916;4.574;2023-04-06T06:11:18;101619.94;;;6.68;62.83
61506;BME280;47366;51.916;4.574;2023-04-06T06:13:43;101611.03;;;6.66;62.56
61506;BME280;47366;51.916;4.574;2023-04-06T06:16:09;101619.81;;;6.71;62.44
61506;BME280;47366;51.916;4.574;2023-04-06T06:18:34;101620.69;;;6.72;62.87
61506;BME280;47366;51.916;4.574;2023-04-06T06:21:01;101611.81;;;6.70;62.92
61506;BME280;47366;51.916;4.574;2023-04-06T06:23:26;101609.16;;;6.68;62.93
61506;BME280;47366;51.916;4.574;2023-04-06T06:25:52;101620.53;;;6.76;62.86
61506;BME280;47366;51.916;4.574;2023-04-06T06:28:17;101606.31;;;6.73;63.50
61506;BME280;47366;51.916;4.574;2023-04-06T06:30:42;101614.16;;;6.79;62.46
61506;BME280;47366;51.916;4.574;2023-04-06T06:33:08;101618.56;;;6.81;63.40
61506;BME280;47366;51.916;4.574;2023-04-06T06:35:33;101613.16;;;6.83;62.92
61506;BME280;47366;51.916;4.574;2023-04-06T06:37:58;101614.81;;;6.87;63.03
61506;BME280;47366;51.916;4.574;2023-04-06T06:40:24;101616.63;;;6.87;63.38
61506;BME280;47366;51.916;4.574;2023-04-06T06:42:49;101612.00;;;6.90;62.84
61506;BME280;47366;51.916;4.574;2023-04-06T06:45:16;101604.75;;;6.92;63.38
61506;BME280;47366;51.916;4.574;2023-04-06T06:47:41;101606.44;;;6.96;62.44
61506;BME280;47366;51.916;4.574;2023-04-06T06:50:07;101614.22;;;7.04;62.68
61506;BME280;47366;51.916;4.574;2023-04-06T06:52:32;101606.91;;;7.08;62.98
61506;BME280;47366;51.916;4.574;2023-04-06T06:54:57;101606.75;;;7.12;63.66
61506;BME280;47366;51.916;4.574;2023-04-06T06:57:23;101602.19;;;7.14;64.42
61506;BME280;47366;51.916;4.574;2023-04-06T06:59:48;101606.56;;;7.18;63.79
61506;BME280;47366;51.916;4.574;2023-04-06T07:02:13;101609.03;;;7.25;63.26
61506;BME280;47366;51.916;4.574;2023-04-06T07:04:39;101614.22;;;7.29;63.82
61506;BME280;47366;51.916;4.574;2023-04-06T07:07:05;101605.28;;;7.29;63.77
61506;BME280;47366;51.916;4.574;2023-04-06T07:09:30;101604.19;;;7.34;64.00
61506;BME280;47366;51.916;4.574;2023-04-06T07:11:56;101605.91;;;7.37;64.16
61506;BME280;47366;51.916;4.574;2023-04-06T07:14:21;101603.91;;;7.42;63.96
61506;BME280;47366;51.916;4.574;2023-04-06T07:16:47;101601.88;;;7.49;63.46
61506;BME280;47366;51.916;4.574;2023-04-06T07:19:13;101600.94;;;7.50;63.89
61506;BME280;47366;51.916;4.574;2023-04-06T07:21:39;101600.72;;;7.56;64.10
61506;BME280;47366;51.916;4.574;2023-04-06T07:24:04;101595.34;;;7.56;65.52
61506;BME280;47366;51.916;4.574;2023-04-06T07:26:30;101599.78;;;7.57;64.75
61506;BME280;47366;51.916;4.574;2023-04-06T07:28:55;101586.25;;;7.58;64.06
61506;BME280;47366;51.916;4.574;2023-04-06T07:31:20;101589.03;;;7.55;66.26
61506;BME280;47366;51.916;4.574;2023-04-06T07:33:46;101589.81;;;7.59;66.23
61506;BME280;47366;51.916;4.574;2023-04-06T07:36:12;101590.56;;;7.62;65.95
61506;BME280;47366;51.916;4.574;2023-04-06T07:38:37;101593.09;;;7.67;68.39
61506;BME280;47366;51.916;4.574;2023-04-06T07:41:02;101592.25;;;7.65;66.84
61506;BME280;47366;51.916;4.574;2023-04-06T07:43:29;101599.25;;;7.71;67.93
61506;BME280;47366;51.916;4.574;2023-04-06T07:45:55;101589.47;;;7.68;67.59
61506;BME280;47366;51.916;4.574;2023-04-06T07:48:22;101590.22;;;7.72;67.79
61506;BME280;47366;51.916;4.574;2023-04-06T07:50:47;101598.22;;;7.75;67.52
61506;BME280;47366;51.916;4.574;2023-04-06T07:53:13;101595.53;;;7.75;66.36
61506;BME280;47366;51.916;4.574;2023-04-06T07:55:38;101591.88;;;7.76;66.65
61506;BME280;47366;51.916;4.574;2023-04-06T07:58:04;101598.78;;;7.83;66.96
61506;BME280;47366;51.916;4.574;2023-04-06T08:00:29;101599.75;;;7.82;67.49
61506;BME280;47366;51.916;4.574;2023-04-06T08:02:55;101601.84;;;7.74;69.00
61506;BME280;47366;51.916;4.574;2023-04-06T08:05:20;101597.47;;;7.70;70.67
61506;BME280;47366;51.916;4.574;2023-04-06T08:07:46;101592.09;;;7.70;69.78
61506;BME280;47366;51.916;4.574;2023-04-06T08:10:11;101589.47;;;7.68;70.28
61506;BME280;47366;51.916;4.574;2023-04-06T08:12:36;101600.97;;;7.73;71.05
61506;BME280;47366;51.916;4.574;2023-04-06T08:15:02;101596.44;;;7.74;70.23
61506;BME280;47366;51.916;4.574;2023-04-06T08:17:28;101593.75;;;7.74;72.60
61506;BME280;47366;51.916;4.574;2023-04-06T08:19:55;101601.63;;;7.80;71.95
61506;BME280;47366;51.916;4.574;2023-04-06T08:22:21;101604.19;;;7.83;71.34
61506;BME280;47366;51.916;4.574;2023-04-06T08:24:46;101603.25;;;7.84;71.91
61506;BME280;47366;51.916;4.574;2023-04-06T08:27:11;101598.56;;;7.89;73.17
61506;BME280;47366;51.916;4.574;2023-04-06T08:29:39;101603.78;;;7.94;73.76
61506;BME280;47366;51.916;4.574;2023-04-06T08:32:04;101612.69;;;7.96;73.93
61506;BME280;47366;51.916;4.574;2023-04-06T08:34:31;101605.41;;;7.98;73.83
61506;BME280;47366;51.916;4.574;2023-04-06T08:36:57;101600.16;;;7.95;75.32
61506;BME280;47366;51.916;4.574;2023-04-06T08:39:23;101593.69;;;7.99;74.49
61506;BME280;47366;51.916;4.574;2023-04-06T08:41:51;101596.22;;;8.03;74.61
61506;BME280;47366;51.916;4.574;2023-04-06T08:44:18;101602.63;;;8.01;74.81
61506;BME280;47366;51.916;4.574;2023-04-06T08:46:43;101594.53;;;8.01;75.58
61506;BME280;47366;51.916;4.574;2023-04-06T08:49:09;101592.78;;;7.98;75.90
61506;BME280;47366;51.916;4.574;2023-04-06T08:51:36;101593.44;;;8.05;75.51
61506;BME280;47366;51.916;4.574;2023-04-06T08:54:03;101595.22;;;8.06;76.46
61506;BME280;47366;51.916;4.574;2023-04-06T08:56:28;101594.41;;;8.04;76.57
61506;BME280;47366;51.916;4.574;2023-04-06T08:58:54;101591.56;;;8.07;76.34
61506;BME280;47366;51.916;4.574;2023-04-06T09:01:22;101589.91;;;8.03;78.10
61506;BME280;47366;51.916;4.574;2023-04-06T09:03:49;101593.53;;;8.03;78.20
61506;BME280;47366;51.916;4.574;2023-04-06T09:06:15;101591.81;;;8.01;78.35
61506;BME280;47366;51.916;4.574;2023-04-06T09:08:41;101589.81;;;8.06;77.00
61506;BME280;47366;51.916;4.574;2023-04-06T09:11:07;101589.19;;;7.99;77.76
61506;BME280;47366;51.916;4.574;2023-04-06T09:13:50;101578.50;;;7.96;77.27
61506;BME280;47366;51.916;4.574;2023-04-06T09:16:16;101591.88;;;7.99;77.09
61506;BME280;47366;51.916;4.574;2023-04-06T09:18:42;101589.13;;;8.01;78.10
61506;BME280;47366;51.916;4.574;2023-04-06T09:21:08;101591.63;;;8.05;77.89
61506;BME280;47366;51.916;4.574;2023-04-06T09:23:34;101583.44;;;8.08;79.40
61506;BME280;47366;51.916;4.574;2023-04-06T09:26:08;101590.22;;;8.19;77.23
61506;BME280;47366;51.916;4.574;2023-04-06T09:31:07;101583.94;;;8.18;78.68
61506;BME280;47366;51.916;4.574;2023-04-06T09:33:37;101587.50;;;8.19;78.13
61506;BME280;47366;51.916;4.574;2023-04-06T09:36:03;101580.38;;;8.18;78.00
61506;BME280;47366;51.916;4.574;2023-04-06T09:38:29;101578.53;;;8.18;78.34
61506;BME280;47366;51.916;4.574;2023-04-06T09:40:54;101580.41;;;8.16;77.63
61506;BME280;47366;51.916;4.574;2023-04-06T09:43:26;101579.66;;;8.13;79.98
61506;BME280;47366;51.916;4.574;2023-04-06T09:45:52;101569.28;;;8.02;80.18
61506;BME280;47366;51.916;4.574;2023-04-06T09:48:19;101580.81;;;8.05;80.79
61506;BME280;47366;51.916;4.574;2023-04-06T09:50:47;101576.34;;;8.06;81.29
61506;BME280;47366;51.916;4.574;2023-04-06T09:53:13;101573.72;;;8.03;81.66
61506;BME280;47366;51.916;4.574;2023-04-06T09:55:42;101572.88;;;8.02;81.49
61506;BME280;47366;51.916;4.574;2023-04-06T09:58:13;101587.41;;;7.98;83.68
61506;BME280;47366;51.916;4.574;2023-04-06T10:01:05;101574.81;;;7.99;82.88
61506;BME280;47366;51.916;4.574;2023-04-06T10:06:04;101574.16;;;7.92;84.41
61506;BME280;47366;51.916;4.574;2023-04-06T10:08:33;101567.06;;;7.90;84.47
61506;BME280;47366;51.916;4.574;2023-04-06T10:11:00;101567.25;;;7.85;84.30
61506;BME280;47366;51.916;4.574;2023-04-06T10:13:27;101569.00;;;7.86;85.72
61506;BME280;47366;51.916;4.574;2023-04-06T10:15:52;101560.16;;;7.82;86.87
61506;BME280;47366;51.916;4.574;2023-04-06T10:18:18;101572.59;;;7.86;86.42
61506;BME280;47366;51.916;4.574;2023-04-06T10:23:26;101562.69;;;7.87;85.81
61506;BME280;47366;51.916;4.574;2023-04-06T10:25:59;101569.00;;;7.86;88.39
61506;BME280;47366;51.916;4.574;2023-04-06T10:28:26;101557.28;;;7.87;87.21
61506;BME280;47366;51.916;4.574;2023-04-06T10:31:00;101556.47;;;7.85;87.85
61506;BME280;47366;51.916;4.574;2023-04-06T10:33:26;101548.38;;;7.85;87.33
61506;BME280;47366;51.916;4.574;2023-04-06T10:35:52;101549.44;;;7.81;88.17
61506;BME280;47366;51.916;4.574;2023-04-06T10:38:19;101552.91;;;7.84;87.78
61506;BME280;47366;51.916;4.574;2023-04-06T10:40:47;101548.41;;;7.83;88.59
61506;BME280;47366;51.916;4.574;2023-04-06T10:43:18;101541.97;;;7.87;87.86
61506;BME280;47366;51.916;4.574;2023-04-06T10:45:44;101548.06;;;7.93;88.77
61506;BME280;47366;51.916;4.574;2023-04-06T10:48:16;101530.31;;;7.87;89.80
61506;BME280;47366;51.916;4.574;2023-04-06T10:50:47;101528.31;;;7.92;88.90
61506;BME280;47366;51.916;4.574;2023-04-06T10:53:27;101532.84;;;7.92;89.00
61506;BME280;47366;51.916;4.574;2023-04-06T10:55:56;101528.38;;;7.91;89.72
61506;BME280;47366;51.916;4.574;2023-04-06T10:58:26;101532.75;;;7.93;89.92
61506;BME280;47366;51.916;4.574;2023-04-06T11:00:53;101529.06;;;7.96;91.49
61506;BME280;47366;51.916;4.574;2023-04-06T11:03:19;101518.41;;;7.93;91.78
61506;BME280;47366;51.916;4.574;2023-04-06T11:05:49;101515.50;;;7.97;90.58
61506;BME280;47366;51.916;4.574;2023-04-06T11:08:25;101522.91;;;7.92;91.62
61506;BME280;47366;51.916;4.574;2023-04-06T11:10:51;101521.16;;;7.91;89.99
61506;BME280;47366;51.916;4.574;2023-04-06T11:13:16;101520.41;;;7.87;91.01
61506;BME280;47366;51.916;4.574;2023-04-06T11:15:42;101516.88;;;7.85;91.10
61506;BME280;47366;51.916;4.574;2023-04-06T11:18:08;101511.31;;;7.90;90.84
61506;BME280;47366;51.916;4.574;2023-04-06T11:20:33;101513.13;;;7.90;91.85
61506;BME280;47366;51.916;4.574;2023-04-06T11:22:58;101514.00;;;7.90;90.84
61506;BME280;47366;51.916;4.574;2023-04-06T11:25:28;101519.34;;;7.92;90.72
61506;BME280;47366;51.916;4.574;2023-04-06T11:27:56;101512.00;;;7.95;91.12
61506;BME280;47366;51.916;4.574;2023-04-06T11:30:22;101501.34;;;7.92;90.92
61506;BME280;47366;51.916;4.574;2023-04-06T11:32:47;101507.03;;;7.84;92.59
61506;BME280;47366;51.916;4.574;2023-04-06T11:35:20;101497.94;;;7.87;91.98
61506;BME280;47366;51.916;4.574;2023-04-06T11:37:48;101497.81;;;7.90;92.71
61506;BME280;47366;51.916;4.574;2023-04-06T11:40:13;101497.69;;;7.93;92.49
61506;BME280;47366;51.916;4.574;2023-04-06T11:42:39;101502.03;;;7.97;93.39
61506;BME280;47366;51.916;4.574;2023-04-06T11:45:07;101495.75;;;7.97;93.16
61506;BME280;47366;51.916;4.574;2023-04-06T11:47:34;101493.13;;;7.95;92.05
61506;BME280;47366;51.916;4.574;2023-04-06T11:50:08;101494.13;;;7.93;92.27
61506;BME280;47366;51.916;4.574;2023-04-06T11:52:34;101487.81;;;7.94;92.28
61506;BME280;47366;51.916;4.574;2023-04-06T11:57:39;101482.59;;;7.89;94.13
61506;BME280;47366;51.916;4.574;2023-04-06T12:00:05;101479.91;;;7.89;94.47
61506;BME280;47366;51.916;4.574;2023-04-06T12:02:31;101482.63;;;7.87;94.53
61506;BME280;47366;51.916;4.574;2023-04-06T12:04:57;101479.94;;;7.87;93.64
61506;BME280;47366;51.916;4.574;2023-04-06T12:07:22;101481.69;;;7.88;94.02
61506;BME280;47366;51.916;4.574;2023-04-06T12:09:48;101481.63;;;7.90;93.97
61506;BME280;47366;51.916;4.574;2023-04-06T12:12:13;101480.94;;;7.85;94.60
61506;BME280;47366;51.916;4.574;2023-04-06T12:14:38;101482.63;;;7.87;94.94
61506;BME280;47366;51.916;4.574;2023-04-06T12:17:03;101482.63;;;7.87;94.32
61506;BME280;47366;51.916;4.574;2023-04-06T12:19:29;101480.00;;;7.86;95.19
61506;BME280;47366;51.916;4.574;2023-04-06T12:21:54;101479.91;;;7.89;94.06
61506;BME280;47366;51.916;4.574;2023-04-06T12:24:21;101480.00;;;7.86;95.07
61506;BME280;47366;51.916;4.574;2023-04-06T12:26:47;101471.91;;;7.86;95.25
61506;BME280;47366;51.916;4.574;2023-04-06T12:29:12;101475.38;;;7.90;94.75
61506;BME280;47366;51.916;4.574;2023-04-06T12:31:38;101477.06;;;7.92;95.38
61506;BME280;47366;51.916;4.574;2023-04-06T12:34:06;101467.16;;;7.93;95.92
61506;BME280;47366;51.916;4.574;2023-04-06T12:36:31;101469.78;;;7.94;95.88
61506;BME280;47366;51.916;4.574;2023-04-06T12:38:57;101474.19;;;7.97;96.70
61506;BME280;47366;51.916;4.574;2023-04-06T12:41:22;101466.22;;;7.94;97.44
61506;BME280;47366;51.916;4.574;2023-04-06T12:43:48;101473.41;;;7.93;96.66
61506;BME280;47366;51.916;4.574;2023-04-06T12:46:14;101466.22;;;7.94;96.47
61506;BME280;47366;51.916;4.574;2023-04-06T12:48:40;101473.41;;;7.93;96.57
61506;BME280;47366;51.916;4.574;2023-04-06T12:51:05;101458.31;;;7.89;97.32
61506;BME280;47366;51.916;4.574;2023-04-06T12:53:32;101442.19;;;7.87;97.13
61506;BME280;47366;51.916;4.574;2023-04-06T12:55:58;101461.94;;;7.88;98.21
61506;BME280;47366;51.916;4.574;2023-04-06T12:58:24;101446.56;;;7.90;96.46
61506;BME280;47366;51.916;4.574;2023-04-06T13:00:51;101453.16;;;7.83;97.78
61506;BME280;47366;51.916;4.574;2023-04-06T13:03:18;101454.16;;;7.80;99.58
61506;BME280;47366;51.916;4.574;2023-04-06T13:05:44;101447.06;;;7.78;100.00